sensor_id;sensor_type;location;lat;lon;timestamp;temperature;humidity
23251;DHT22;11794;49.730;10.088;2023-03-01T00:01:22;-1.70;99.90
23251;DHT22;11794;49.730;10.088;2023-03-01T00:03:47;-1.70;99.90
23251;DHT22;11794;49.730;10.088;2023-03-01T00:06:13;-1.70;99.90
23251;DHT22;11794;49.730;10.088;2023-03-01T00:08:39;-1.70;99.90
23251;DHT22;11794;49.730;10.088;2023-03-01T00:13:31;-1.70;99.90
23251;DHT22;11794;49.730;10.088;2023-03-01T00:15:56;-1.80;99.90
23251;DHT22;11794;49.730;10.088;2023-03-01T00:18:22;-1.80;99.90
23251;DHT22;11794;49.730;10.088;2023-03-01T00:23:29;-1.80;99.90
23251;DHT22;11794;49.730;10.088;2023-03-01T00:25:55;-1.80;99.90
23251;DHT22;11794;49.730;10.088;2023-03-01T00:28:21;-1.80;99.90
23251;DHT22;11794;49.730;10.088;2023-03-01T00:30:47;-1.90;99.90
23251;DHT22;11794;49.730;10.088;2023-03-01T00:33:13;-1.90;99.90
23251;DHT22;11794;49.730;10.088;2023-03-01T00:35:38;-2.00;99.90
23251;DHT22;11794;49.730;10.088;2023-03-01T00:38:04;-2.00;99.90
23251;DHT22;11794;49.730;10.088;2023-03-01T00:40:32;-2.00;99.90
23251;DHT22;11794;49.730;10.088;2023-03-01T00:42:57;-2.00;99.90
23251;DHT22;11794;49.730;10.088;2023-03-01T00:45:23;-2.00;99.90
23251;DHT22;11794;49.730;10.088;2023-03-01T00:47:50;-2.00;99.90
23251;DHT22;11794;49.730;10.088;2023-03-01T00:50:16;-2.00;99.90
23251;DHT22;11794;49.730;10.088;2023-03-01T00:52:42;-2.10;99.90
23251;DHT22;11794;49.730;10.088;2023-03-01T00:55:08;-2.10;99.90
23251;DHT22;11794;49.730;10.088;2023-03-01T00:57:33;-2.10;99.90
23251;DHT22;11794;49.730;10.088;2023-03-01T00:59:59;-2.10;99.90
23251;DHT22;11794;49.730;10.088;2023-03-01T01:02:25;-2.10;99.90
23251;DHT22;11794;49.730;10.088;2023-03-01T01:04:51;-2.10;99.90
23251;DHT22;11794;49.730;10.088;2023-03-01T01:07:17;-2.10;99.90
23251;DHT22;11794;49.730;10.088;2023-03-01T01:09:43;-2.20;99.90
23251;DHT22;11794;49.730;10.088;2023-03-01T01:12:09;-2.20;99.90
23251;DHT22;11794;49.730;10.088;2023-03-01T01:14:35;-2.30;99.90
23251;DHT22;11794;49.730;10.088;2023-03-01T01:17:01;-2.30;99.90
23251;DHT22;11794;49.730;10.088;2023-03-01T01:19:26;-2.40;99.90
23251;DHT22;11794;49.730;10.088;2023-03-01T01:21:52;-2.40;99.90
23251;DHT22;11794;49.730;10.088;2023-03-01T01:24:18;-2.30;99.90
23251;DHT22;11794;49.730;10.088;2023-03-01T01:26:44;-2.30;99.90
23251;DHT22;11794;49.730;10.088;2023-03-01T01:29:10;-2.30;99.90
23251;DHT22;11794;49.730;10.088;2023-03-01T01:31:38;-2.40;99.90
23251;DHT22;11794;49.730;10.088;2023-03-01T01:34:05;-2.30;99.90
23251;DHT22;11794;49.730;10.088;2023-03-01T01:36:32;-2.20;99.90
23251;DHT22;11794;49.730;10.088;2023-03-01T01:38:58;-2.20;99.90
23251;DHT22;11794;49.730;10.088;2023-03-01T01:41:26;-2.20;99.90
23251;DHT22;11794;49.730;10.088;2023-03-01T01:49:27;-2.20;99.90
23251;DHT22;11794;49.730;10.088;2023-03-01T01:52:00;-2.20;99.90
23251;DHT22;11794;49.730;10.088;2023-03-01T01:54:33;-2.20;99.90
23251;DHT22;11794;49.730;10.088;2023-03-01T01:57:02;-2.30;99.90
23251;DHT22;11794;49.730;10.088;2023-03-01T01:59:31;-2.20;99.90
23251;DHT22;11794;49.730;10.088;2023-03-01T02:02:00;-2.30;99.90
23251;DHT22;11794;49.730;10.088;2023-03-01T02:04:28;-2.30;99.90
23251;DHT22;11794;49.730;10.088;2023-03-01T02:07:18;-2.30;99.90
23251;DHT22;11794;49.730;10.088;2023-03-01T02:09:48;-2.40;99.90
23251;DHT22;11794;49.730;10.088;2023-03-01T02:12:19;-2.40;99.90
23251;DHT22;11794;49.730;10.088;2023-03-01T02:14:45;-2.50;99.90
23251;DHT22;11794;49.730;10.088;2023-03-01T02:17:12;-2.50;99.90
23251;DHT22;11794;49.730;10.088;2023-03-01T02:20:00;-2.50;99.90
23251;DHT22;11794;49.730;10.088;2023-03-01T02:22:33;-2.50;99.90
23251;DHT22;11794;49.730;10.088;2023-03-01T02:28:01;-2.60;99.90
23251;DHT22;11794;49.730;10.088;2023-03-01T02:30:31;-2.70;99.90
23251;DHT22;11794;49.730;10.088;2023-03-01T02:32:58;-2.80;99.90
23251;DHT22;11794;49.730;10.088;2023-03-01T02:35:31;-2.80;99.90
23251;DHT22;11794;49.730;10.088;2023-03-01T02:37:59;-2.90;99.90
23251;DHT22;11794;49.730;10.088;2023-03-01T02:40:30;-2.90;99.90
23251;DHT22;11794;49.730;10.088;2023-03-01T02:42:58;-2.90;99.90
23251;DHT22;11794;49.730;10.088;2023-03-01T02:45:26;-2.90;99.90
23251;DHT22;11794;49.730;10.088;2023-03-01T02:47:54;-2.80;99.90
23251;DHT22;11794;49.730;10.088;2023-03-01T02:50:38;-2.80;99.90
23251;DHT22;11794;49.730;10.088;2023-03-01T02:53:19;-2.80;99.90
23251;DHT22;11794;49.730;10.088;2023-03-01T02:55:47;-2.70;99.90
23251;DHT22;11794;49.730;10.088;2023-03-01T02:58:13;-2.70;99.90
23251;DHT22;11794;49.730;10.088;2023-03-01T03:00:41;-2.70;99.90
23251;DHT22;11794;49.730;10.088;2023-03-01T03:03:13;-2.70;99.90
23251;DHT22;11794;49.730;10.088;2023-03-01T03:05:39;-2.70;99.90
23251;DHT22;11794;49.730;10.088;2023-03-01T03:08:05;-2.70;99.90
23251;DHT22;11794;49.730;10.088;2023-03-01T03:10:33;-2.70;99.90
23251;DHT22;11794;49.730;10.088;2023-03-01T03:13:01;-2.70;99.90
23251;DHT22;11794;49.730;10.088;2023-03-01T03:15:27;-2.70;99.90
23251;DHT22;11794;49.730;10.088;2023-03-01T03:17:54;-2.80;99.90
23251;DHT22;11794;49.730;10.088;2023-03-01T03:20:22;-2.80;99.90
23251;DHT22;11794;49.730;10.088;2023-03-01T03:22:51;-2.80;99.90
23251;DHT22;11794;49.730;10.088;2023-03-01T03:25:18;-2.80;99.90
23251;DHT22;11794;49.730;10.088;2023-03-01T03:27:46;-2.80;99.90
23251;DHT22;11794;49.730;10.088;2023-03-01T03:30:15;-2.90;99.90
23251;DHT22;11794;49.730;10.088;2023-03-01T03:32:42;-2.90;99.90
23251;DHT22;11794;49.730;10.088;2023-03-01T03:35:25;-2.80;99.90
23251;DHT22;11794;49.730;10.088;2023-03-01T03:37:52;-2.80;99.90
23251;DHT22;11794;49.730;10.088;2023-03-01T03:40:39;-2.80;99.90
23251;DHT22;11794;49.730;10.088;2023-03-01T03:43:07;-2.80;99.90
23251;DHT22;11794;49.730;10.088;2023-03-01T03:45:34;-2.80;99.90
23251;DHT22;11794;49.730;10.088;2023-03-01T03:48:01;-2.80;99.90
23251;DHT22;11794;49.730;10.088;2023-03-01T03:50:26;-2.80;99.90
23251;DHT22;11794;49.730;10.088;2023-03-01T03:52:52;-2.90;99.90
23251;DHT22;11794;49.730;10.088;2023-03-01T03:55:18;-2.80;99.90
23251;DHT22;11794;49.730;10.088;2023-03-01T03:57:46;-2.80;99.90
23251;DHT22;11794;49.730;10.088;2023-03-01T04:00:18;-2.80;99.90
23251;DHT22;11794;49.730;10.088;2023-03-01T04:02:44;-2.80;99.90
23251;DHT22;11794;49.730;10.088;2023-03-01T04:05:12;-2.80;99.90
23251;DHT22;11794;49.730;10.088;2023-03-01T04:07:38;-2.80;99.90
23251;DHT22;11794;49.730;10.088;2023-03-01T04:10:06;-2.90;99.90
23251;DHT22;11794;49.730;10.088;2023-03-01T04:12:32;-2.80;99.90
23251;DHT22;11794;49.730;10.088;2023-03-01T04:14:59;-2.80;99.90
23251;DHT22;11794;49.730;10.088;2023-03-01T04:17:25;-2.80;99.90
23251;DHT22;11794;49.730;10.088;2023-03-01T04:19:51;-2.80;99.90
23251;DHT22;11794;49.730;10.088;2023-03-01T04:22:16;-2.80;99.90
23251;DHT22;11794;49.730;10.088;2023-03-01T04:24:44;-2.80;99.90
23251;DHT22;11794;49.730;10.088;2023-03-01T04:27:10;-2.80;99.90
23251;DHT22;11794;49.730;10.088;2023-03-01T04:29:36;-2.80;99.90
23251;DHT22;11794;49.730;10.088;2023-03-01T04:32:01;-2.80;99.90
23251;DHT22;11794;49.730;10.088;2023-03-01T04:34:28;-2.80;99.90
23251;DHT22;11794;49.730;10.088;2023-03-01T04:36:54;-2.80;99.90
23251;DHT22;11794;49.730;10.088;2023-03-01T04:39:20;-2.80;99.90
23251;DHT22;11794;49.730;10.088;2023-03-01T04:41:46;-2.80;99.90
23251;DHT22;11794;49.730;10.088;2023-03-01T04:44:11;-2.80;99.90
23251;DHT22;11794;49.730;10.088;2023-03-01T04:46:37;-2.80;99.90
23251;DHT22;11794;49.730;10.088;2023-03-01T04:49:03;-2.80;99.90
23251;DHT22;11794;49.730;10.088;2023-03-01T04:51:29;-2.80;99.90
23251;DHT22;11794;49.730;10.088;2023-03-01T04:53:54;-2.80;99.90
23251;DHT22;11794;49.730;10.088;2023-03-01T04:56:20;-2.80;99.90
23251;DHT22;11794;49.730;10.088;2023-03-01T04:58:48;-2.80;99.90
23251;DHT22;11794;49.730;10.088;2023-03-01T05:01:17;-2.70;99.90
23251;DHT22;11794;49.730;10.088;2023-03-01T05:03:45;-2.70;99.90
23251;DHT22;11794;49.730;10.088;2023-03-01T05:06:10;-2.70;99.90
23251;DHT22;11794;49.730;10.088;2023-03-01T05:08:38;-2.70;99.90
23251;DHT22;11794;49.730;10.088;2023-03-01T05:11:04;-2.70;99.90
23251;DHT22;11794;49.730;10.088;2023-03-01T05:13:29;-2.70;99.90
23251;DHT22;11794;49.730;10.088;2023-03-01T05:15:57;-2.70;99.90
23251;DHT22;11794;49.730;10.088;2023-03-01T05:18:24;-2.70;99.90
23251;DHT22;11794;49.730;10.088;2023-03-01T05:21:01;-2.70;99.90
23251;DHT22;11794;49.730;10.088;2023-03-01T05:23:26;-2.70;99.90
23251;DHT22;11794;49.730;10.088;2023-03-01T05:25:52;-2.70;99.90
23251;DHT22;11794;49.730;10.088;2023-03-01T05:28:19;-2.70;99.90
23251;DHT22;11794;49.730;10.088;2023-03-01T05:30:45;-2.70;99.90
23251;DHT22;11794;49.730;10.088;2023-03-01T05:33:11;-2.80;99.90
23251;DHT22;11794;49.730;10.088;2023-03-01T05:35:41;-2.80;99.90
23251;DHT22;11794;49.730;10.088;2023-03-01T05:38:07;-2.90;99.90
23251;DHT22;11794;49.730;10.088;2023-03-01T05:40:33;-2.90;99.90
23251;DHT22;11794;49.730;10.088;2023-03-01T05:42:59;-3.00;99.90
23251;DHT22;11794;49.730;10.088;2023-03-01T05:45:26;-3.00;99.90
23251;DHT22;11794;49.730;10.088;2023-03-01T05:47:52;-3.00;99.90
23251;DHT22;11794;49.730;10.088;2023-03-01T05:50:19;-3.10;99.90
23251;DHT22;11794;49.730;10.088;2023-03-01T05:52:49;-3.10;99.90
23251;DHT22;11794;49.730;10.088;2023-03-01T05:55:17;-3.10;99.90
23251;DHT22;11794;49.730;10.088;2023-03-01T05:57:43;-3.10;99.90
23251;DHT22;11794;49.730;10.088;2023-03-01T06:00:09;-3.00;99.90
23251;DHT22;11794;49.730;10.088;2023-03-01T06:02:35;-3.00;99.90
23251;DHT22;11794;49.730;10.088;2023-03-01T06:05:01;-3.00;99.90
23251;DHT22;11794;49.730;10.088;2023-03-01T06:07:27;-2.90;99.90
23251;DHT22;11794;49.730;10.088;2023-03-01T06:09:53;-3.00;99.90
23251;DHT22;11794;49.730;10.088;2023-03-01T06:12:18;-3.00;99.90
23251;DHT22;11794;49.730;10.088;2023-03-01T06:14:45;-3.00;99.90
23251;DHT22;11794;49.730;10.088;2023-03-01T06:17:11;-3.00;99.90
23251;DHT22;11794;49.730;10.088;2023-03-01T06:19:36;-3.00;99.90
23251;DHT22;11794;49.730;10.088;2023-03-01T06:22:02;-2.90;99.90
23251;DHT22;11794;49.730;10.088;2023-03-01T06:24:27;-2.90;99.90
23251;DHT22;11794;49.730;10.088;2023-03-01T06:26:54;-2.80;99.90
23251;DHT22;11794;49.730;10.088;2023-03-01T06:29:19;-2.70;99.90
23251;DHT22;11794;49.730;10.088;2023-03-01T06:31:45;-2.50;99.90
23251;DHT22;11794;49.730;10.088;2023-03-01T06:34:11;-2.40;99.90
23251;DHT22;11794;49.730;10.088;2023-03-01T06:36:39;-2.30;99.90
23251;DHT22;11794;49.730;10.088;2023-03-01T06:39:05;-2.10;99.90
23251;DHT22;11794;49.730;10.088;2023-03-01T06:41:31;-1.90;99.90
23251;DHT22;11794;49.730;10.088;2023-03-01T06:43:56;-1.80;99.90
23251;DHT22;11794;49.730;10.088;2023-03-01T06:46:22;-1.60;99.90
23251;DHT22;11794;49.730;10.088;2023-03-01T06:48:48;-1.30;99.90
23251;DHT22;11794;49.730;10.088;2023-03-01T06:51:13;-0.80;99.90
23251;DHT22;11794;49.730;10.088;2023-03-01T06:53:38;-0.40;99.90
23251;DHT22;11794;49.730;10.088;2023-03-01T06:56:04;-0.20;99.90
23251;DHT22;11794;49.730;10.088;2023-03-01T06:58:30;0.00;99.90
23251;DHT22;11794;49.730;10.088;2023-03-01T07:00:55;0.00;99.90
23251;DHT22;11794;49.730;10.088;2023-03-01T07:03:21;0.10;99.90
23251;DHT22;11794;49.730;10.088;2023-03-01T07:05:49;-0.20;99.90
23251;DHT22;11794;49.730;10.088;2023-03-01T07:08:15;-0.30;99.90
23251;DHT22;11794;49.730;10.088;2023-03-01T07:10:40;-0.30;99.90
23251;DHT22;11794;49.730;10.088;2023-03-01T07:13:06;-0.20;99.90
23251;DHT22;11794;49.730;10.088;2023-03-01T07:15:32;0.00;99.90
23251;DHT22;11794;49.730;10.088;2023-03-01T07:17:58;0.10;99.90
23251;DHT22;11794;49.730;10.088;2023-03-01T07:20:23;0.20;99.90
23251;DHT22;11794;49.730;10.088;2023-03-01T07:22:54;0.10;99.90
23251;DHT22;11794;49.730;10.088;2023-03-01T07:25:20;0.10;99.90
23251;DHT22;11794;49.730;10.088;2023-03-01T07:27:53;0.10;99.90
23251;DHT22;11794;49.730;10.088;2023-03-01T07:30:20;0.30;99.90
23251;DHT22;11794;49.730;10.088;2023-03-01T07:32:46;0.40;99.90
23251;DHT22;11794;49.730;10.088;2023-03-01T07:35:11;0.60;99.90
23251;DHT22;11794;49.730;10.088;2023-03-01T07:37:37;1.00;99.90
23251;DHT22;11794;49.730;10.088;2023-03-01T07:40:03;1.20;99.90
23251;DHT22;11794;49.730;10.088;2023-03-01T07:42:28;1.40;99.90
23251;DHT22;11794;49.730;10.088;2023-03-01T07:44:54;1.50;99.90
23251;DHT22;11794;49.730;10.088;2023-03-01T07:47:19;1.50;99.90
23251;DHT22;11794;49.730;10.088;2023-03-01T07:49:45;1.60;99.90
23251;DHT22;11794;49.730;10.088;2023-03-01T07:52:11;1.70;99.90
23251;DHT22;11794;49.730;10.088;2023-03-01T07:54:37;1.90;99.90
23251;DHT22;11794;49.730;10.088;2023-03-01T07:57:03;2.20;99.90
23251;DHT22;11794;49.730;10.088;2023-03-01T07:59:28;2.40;99.90
23251;DHT22;11794;49.730;10.088;2023-03-01T08:01:56;2.40;99.90
23251;DHT22;11794;49.730;10.088;2023-03-01T08:04:22;2.80;99.90
23251;DHT22;11794;49.730;10.088;2023-03-01T08:06:47;2.90;99.90
23251;DHT22;11794;49.730;10.088;2023-03-01T08:09:13;3.30;99.90
23251;DHT22;11794;49.730;10.088;2023-03-01T08:11:38;3.30;99.90
23251;DHT22;11794;49.730;10.088;2023-03-01T08:14:04;3.60;99.90
23251;DHT22;11794;49.730;10.088;2023-03-01T08:16:29;4.00;99.90
23251;DHT22;11794;49.730;10.088;2023-03-01T08:18:55;4.50;99.90
23251;DHT22;11794;49.730;10.088;2023-03-01T08:21:22;4.80;99.90
23251;DHT22;11794;49.730;10.088;2023-03-01T08:23:47;4.90;99.90
23251;DHT22;11794;49.730;10.088;2023-03-01T08:26:19;5.10;99.90
23251;DHT22;11794;49.730;10.088;2023-03-01T08:28:45;5.30;99.90
23251;DHT22;11794;49.730;10.088;2023-03-01T08:31:26;5.10;99.90
23251;DHT22;11794;49.730;10.088;2023-03-01T08:33:54;5.10;99.90
23251;DHT22;11794;49.730;10.088;2023-03-01T08:36:22;5.00;99.90
23251;DHT22;11794;49.730;10.088;2023-03-01T08:38:48;5.10;99.90
23251;DHT22;11794;49.730;10.088;2023-03-01T08:41:13;5.50;99.90
23251;DHT22;11794;49.730;10.088;2023-03-01T08:43:40;5.60;99.90
23251;DHT22;11794;49.730;10.088;2023-03-01T08:46:05;6.00;99.90
23251;DHT22;11794;49.730;10.088;2023-03-01T08:48:31;6.10;99.90
23251;DHT22;11794;49.730;10.088;2023-03-01T08:50:56;5.90;99.90
23251;DHT22;11794;49.730;10.088;2023-03-01T08:53:22;6.00;99.90
23251;DHT22;11794;49.730;10.088;2023-03-01T08:55:47;6.20;99.90
23251;DHT22;11794;49.730;10.088;2023-03-01T08:58:13;6.40;99.90
23251;DHT22;11794;49.730;10.088;2023-03-01T09:00:39;6.60;99.90
23251;DHT22;11794;49.730;10.088;2023-03-01T09:03:05;7.00;99.90
23251;DHT22;11794;49.730;10.088;2023-03-01T09:05:32;7.40;99.90
23251;DHT22;11794;49.730;10.088;2023-03-01T09:07:58;7.30;99.90
23251;DHT22;11794;49.730;10.088;2023-03-01T09:10:23;7.60;99.90
23251;DHT22;11794;49.730;10.088;2023-03-01T09:12:49;8.10;99.90
23251;DHT22;11794;49.730;10.088;2023-03-01T09:15:14;8.20;99.90
23251;DHT22;11794;49.730;10.088;2023-03-01T09:17:40;8.20;99.90
23251;DHT22;11794;49.730;10.088;2023-03-01T09:20:06;8.30;99.90
23251;DHT22;11794;49.730;10.088;2023-03-01T09:22:33;7.90;99.90
23251;DHT22;11794;49.730;10.088;2023-03-01T09:24:59;7.90;99.90
23251;DHT22;11794;49.730;10.088;2023-03-01T09:27:25;8.10;99.90
23251;DHT22;11794;49.730;10.088;2023-03-01T09:29:50;8.50;99.90
23251;DHT22;11794;49.730;10.088;2023-03-01T09:32:16;8.80;99.90
23251;DHT22;11794;49.730;10.088;2023-03-01T09:34:41;9.10;99.90
23251;DHT22;11794;49.730;10.088;2023-03-01T09:37:26;9.30;99.10
23251;DHT22;11794;49.730;10.088;2023-03-01T09:39:52;9.20;98.70
23251;DHT22;11794;49.730;10.088;2023-03-01T09:42:17;9.20;98.50
23251;DHT22;11794;49.730;10.088;2023-03-01T09:44:56;9.10;99.60
23251;DHT22;11794;49.730;10.088;2023-03-01T09:47:27;9.50;98.90
23251;DHT22;11794;49.730;10.088;2023-03-01T09:50:20;9.70;98.00
23251;DHT22;11794;49.730;10.088;2023-03-01T09:55:46;8.40;98.20
23251;DHT22;11794;49.730;10.088;2023-03-01T10:04:41;9.50;98.70
23251;DHT22;11794;49.730;10.088;2023-03-01T10:07:14;9.90;98.30
23251;DHT22;11794;49.730;10.088;2023-03-01T10:09:44;9.50;96.80
23251;DHT22;11794;49.730;10.088;2023-03-01T10:12:16;9.60;97.50
23251;DHT22;11794;49.730;10.088;2023-03-01T10:15:14;10.10;97.20
23251;DHT22;11794;49.730;10.088;2023-03-01T10:20:26;10.30;96.40
23251;DHT22;11794;49.730;10.088;2023-03-01T10:22:52;10.50;97.50
23251;DHT22;11794;49.730;10.088;2023-03-01T10:25:41;10.70;96.90
23251;DHT22;11794;49.730;10.088;2023-03-01T10:28:20;11.30;97.00
23251;DHT22;11794;49.730;10.088;2023-03-01T10:30:47;12.00;94.00
23251;DHT22;11794;49.730;10.088;2023-03-01T10:33:26;12.20;93.70
23251;DHT22;11794;49.730;10.088;2023-03-01T10:35:52;11.30;94.60
23251;DHT22;11794;49.730;10.088;2023-03-01T10:38:19;11.00;94.90
23251;DHT22;11794;49.730;10.088;2023-03-01T10:40:58;11.60;93.10
23251;DHT22;11794;49.730;10.088;2023-03-01T10:43:25;12.10;93.20
23251;DHT22;11794;49.730;10.088;2023-03-01T10:45:52;11.70;93.80
23251;DHT22;11794;49.730;10.088;2023-03-01T10:48:23;11.40;94.30
23251;DHT22;11794;49.730;10.088;2023-03-01T10:51:06;11.00;94.50
23251;DHT22;11794;49.730;10.088;2023-03-01T10:53:33;11.50;94.40
23251;DHT22;11794;49.730;10.088;2023-03-01T10:56:11;11.30;94.20
23251;DHT22;11794;49.730;10.088;2023-03-01T10:58:40;11.10;94.30
23251;DHT22;11794;49.730;10.088;2023-03-01T11:01:24;11.00;94.60
23251;DHT22;11794;49.730;10.088;2023-03-01T11:06:34;12.00;93.30
23251;DHT22;11794;49.730;10.088;2023-03-01T11:09:20;11.80;93.60
23251;DHT22;11794;49.730;10.088;2023-03-01T11:11:52;11.20;94.00
23251;DHT22;11794;49.730;10.088;2023-03-01T11:14:22;10.90;93.80
23251;DHT22;11794;49.730;10.088;2023-03-01T11:17:01;11.70;92.90
23251;DHT22;11794;49.730;10.088;2023-03-01T11:19:27;12.50;92.00
23251;DHT22;11794;49.730;10.088;2023-03-01T11:22:05;12.70;91.50
23251;DHT22;11794;49.730;10.088;2023-03-01T11:24:45;12.60;91.70
23251;DHT22;11794;49.730;10.088;2023-03-01T11:27:32;11.90;91.70
23251;DHT22;11794;49.730;10.088;2023-03-01T11:30:13;11.70;92.80
23251;DHT22;11794;49.730;10.088;2023-03-01T11:32:45;11.70;93.60
23251;DHT22;11794;49.730;10.088;2023-03-01T11:35:20;11.80;93.30
23251;DHT22;11794;49.730;10.088;2023-03-01T11:38:09;11.60;92.30
23251;DHT22;11794;49.730;10.088;2023-03-01T11:43:22;11.20;92.20
23251;DHT22;11794;49.730;10.088;2023-03-01T11:45:58;11.50;93.10
23251;DHT22;11794;49.730;10.088;2023-03-01T11:59:48;12.00;92.90
23251;DHT22;11794;49.730;10.088;2023-03-01T12:03:16;11.50;92.80
23251;DHT22;11794;49.730;10.088;2023-03-01T12:08:14;12.00;92.50
23251;DHT22;11794;49.730;10.088;2023-03-01T12:25:04;12.90;91.60
23251;DHT22;11794;49.730;10.088;2023-03-01T12:31:03;13.70;91.30
23251;DHT22;11794;49.730;10.088;2023-03-01T12:34:01;13.90;90.20
23251;DHT22;11794;49.730;10.088;2023-03-01T12:45:26;14.30;88.20
23251;DHT22;11794;49.730;10.088;2023-03-01T12:48:08;14.20;90.20
23251;DHT22;11794;49.730;10.088;2023-03-01T12:50:42;14.50;90.30
23251;DHT22;11794;49.730;10.088;2023-03-01T12:53:25;14.90;90.00
23251;DHT22;11794;49.730;10.088;2023-03-01T12:56:05;14.80;89.10
23251;DHT22;11794;49.730;10.088;2023-03-01T13:04:10;15.40;89.40
23251;DHT22;11794;49.730;10.088;2023-03-01T13:07:04;16.00;87.70
23251;DHT22;11794;49.730;10.088;2023-03-01T13:09:37;15.50;87.00
23251;DHT22;11794;49.730;10.088;2023-03-01T13:12:44;15.30;88.10
23251;DHT22;11794;49.730;10.088;2023-03-01T13:17:56;15.10;87.90
23251;DHT22;11794;49.730;10.088;2023-03-01T13:28:46;15.20;87.70
23251;DHT22;11794;49.730;10.088;2023-03-01T13:33:48;15.30;87.30
23251;DHT22;11794;49.730;10.088;2023-03-01T13:49:56;15.20;87.40
23251;DHT22;11794;49.730;10.088;2023-03-01T13:52:40;15.40;87.40
23251;DHT22;11794;49.730;10.088;2023-03-01T13:57:39;14.30;87.80
23251;DHT22;11794;49.730;10.088;2023-03-01T14:00:05;14.80;87.70
23251;DHT22;11794;49.730;10.088;2023-03-01T14:02:31;15.00;87.80
23251;DHT22;11794;49.730;10.088;2023-03-01T14:04:58;14.90;87.10
23251;DHT22;11794;49.730;10.088;2023-03-01T14:07:25;14.90;88.40
23251;DHT22;11794;49.730;10.088;2023-03-01T14:09:54;14.50;87.20
23251;DHT22;11794;49.730;10.088;2023-03-01T14:12:39;14.40;87.60
23251;DHT22;11794;49.730;10.088;2023-03-01T14:15:33;14.00;89.10
23251;DHT22;11794;49.730;10.088;2023-03-01T14:20:43;14.50;87.70
23251;DHT22;11794;49.730;10.088;2023-03-01T14:23:19;13.80;89.20
23251;DHT22;11794;49.730;10.088;2023-03-01T14:25:54;13.60;89.90
23251;DHT22;11794;49.730;10.088;2023-03-01T14:28:23;14.00;89.60
23251;DHT22;11794;49.730;10.088;2023-03-01T14:30:51;14.00;89.70
23251;DHT22;11794;49.730;10.088;2023-03-01T14:33:34;14.20;88.80
23251;DHT22;11794;49.730;10.088;2023-03-01T14:36:02;14.40;86.60
23251;DHT22;11794;49.730;10.088;2023-03-01T14:41:16;14.30;88.40
23251;DHT22;11794;49.730;10.088;2023-03-01T14:46:26;13.50;87.70
23251;DHT22;11794;49.730;10.088;2023-03-01T14:49:03;13.20;90.00
23251;DHT22;11794;49.730;10.088;2023-03-01T14:51:29;13.30;89.80
23251;DHT22;11794;49.730;10.088;2023-03-01T14:53:55;12.70;89.80
23251;DHT22;11794;49.730;10.088;2023-03-01T14:56:21;12.70;90.30
23251;DHT22;11794;49.730;10.088;2023-03-01T14:58:51;12.80;90.00
23251;DHT22;11794;49.730;10.088;2023-03-01T15:01:18;12.70;89.70
23251;DHT22;11794;49.730;10.088;2023-03-01T15:03:46;12.90;90.70
23251;DHT22;11794;49.730;10.088;2023-03-01T15:06:17;13.50;90.30
23251;DHT22;11794;49.730;10.088;2023-03-01T15:08:49;13.60;88.20
23251;DHT22;11794;49.730;10.088;2023-03-01T15:11:27;12.90;89.60
23251;DHT22;11794;49.730;10.088;2023-03-01T15:13:53;12.20;90.50
23251;DHT22;11794;49.730;10.088;2023-03-01T15:16:26;11.80;90.90
23251;DHT22;11794;49.730;10.088;2023-03-01T15:18:57;11.50;91.70
23251;DHT22;11794;49.730;10.088;2023-03-01T15:21:33;12.00;91.90
23251;DHT22;11794;49.730;10.088;2023-03-01T15:24:08;12.40;91.30
23251;DHT22;11794;49.730;10.088;2023-03-01T15:29:23;12.10;91.10
23251;DHT22;11794;49.730;10.088;2023-03-01T15:32:36;11.50;91.00
23251;DHT22;11794;49.730;10.088;2023-03-01T15:35:39;11.80;91.20
23251;DHT22;11794;49.730;10.088;2023-03-01T15:38:25;13.00;90.30
23251;DHT22;11794;49.730;10.088;2023-03-01T15:40:51;12.80;90.60
23251;DHT22;11794;49.730;10.088;2023-03-01T15:43:37;12.50;91.10
23251;DHT22;11794;49.730;10.088;2023-03-01T15:46:03;12.00;91.10
23251;DHT22;11794;49.730;10.088;2023-03-01T15:48:29;11.50;92.00
23251;DHT22;11794;49.730;10.088;2023-03-01T15:50:58;11.10;91.90
23251;DHT22;11794;49.730;10.088;2023-03-01T15:53:24;11.30;92.50
23251;DHT22;11794;49.730;10.088;2023-03-01T15:55:52;11.00;92.10
23251;DHT22;11794;49.730;10.088;2023-03-01T15:58:18;10.90;92.10
23251;DHT22;11794;49.730;10.088;2023-03-01T16:00:46;10.50;92.70
23251;DHT22;11794;49.730;10.088;2023-03-01T16:03:14;9.90;93.30
23251;DHT22;11794;49.730;10.088;2023-03-01T16:05:40;9.60;93.80
23251;DHT22;11794;49.730;10.088;2023-03-01T16:08:06;9.50;94.20
23251;DHT22;11794;49.730;10.088;2023-03-01T16:10:32;9.10;94.80
23251;DHT22;11794;49.730;10.088;2023-03-01T16:12:59;8.90;95.00
23251;DHT22;11794;49.730;10.088;2023-03-01T16:15:30;8.70;95.60
23251;DHT22;11794;49.730;10.088;2023-03-01T16:17:56;8.20;95.90
23251;DHT22;11794;49.730;10.088;2023-03-01T16:20:24;7.70;96.70
23251;DHT22;11794;49.730;10.088;2023-03-01T16:22:50;7.40;97.10
23251;DHT22;11794;49.730;10.088;2023-03-01T16:25:18;7.20;97.80
23251;DHT22;11794;49.730;10.088;2023-03-01T16:27:46;7.10;98.00
23251;DHT22;11794;49.730;10.088;2023-03-01T16:30:13;6.90;98.30
23251;DHT22;11794;49.730;10.088;2023-03-01T16:32:40;6.90;98.50
23251;DHT22;11794;49.730;10.088;2023-03-01T16:35:07;6.80;99.00
23251;DHT22;11794;49.730;10.088;2023-03-01T16:37:33;6.70;99.00
23251;DHT22;11794;49.730;10.088;2023-03-01T16:39:59;6.60;99.60
23251;DHT22;11794;49.730;10.088;2023-03-01T16:42:25;6.50;99.90
23251;DHT22;11794;49.730;10.088;2023-03-01T16:44:57;6.30;99.90
23251;DHT22;11794;49.730;10.088;2023-03-01T16:47:22;6.20;99.90
23251;DHT22;11794;49.730;10.088;2023-03-01T16:49:52;6.00;99.90
23251;DHT22;11794;49.730;10.088;2023-03-01T16:52:18;5.80;99.90
23251;DHT22;11794;49.730;10.088;2023-03-01T16:54:43;5.60;99.90
23251;DHT22;11794;49.730;10.088;2023-03-01T16:57:09;5.60;99.90
23251;DHT22;11794;49.730;10.088;2023-03-01T16:59:34;5.50;99.90
23251;DHT22;11794;49.730;10.088;2023-03-01T17:02:00;5.40;99.90
23251;DHT22;11794;49.730;10.088;2023-03-01T17:04:25;5.30;99.90
23251;DHT22;11794;49.730;10.088;2023-03-01T17:06:51;5.10;99.90
23251;DHT22;11794;49.730;10.088;2023-03-01T17:09:16;5.10;99.90
23251;DHT22;11794;49.730;10.088;2023-03-01T17:11:43;5.00;99.90
23251;DHT22;11794;49.730;10.088;2023-03-01T17:14:08;4.90;99.90
23251;DHT22;11794;49.730;10.088;2023-03-01T17:16:34;4.80;99.90
23251;DHT22;11794;49.730;10.088;2023-03-01T17:19:00;4.60;99.90
23251;DHT22;11794;49.730;10.088;2023-03-01T17:21:26;4.60;99.90
23251;DHT22;11794;49.730;10.088;2023-03-01T17:23:55;4.60;99.90
23251;DHT22;11794;49.730;10.088;2023-03-01T17:26:21;4.50;99.90
23251;DHT22;11794;49.730;10.088;2023-03-01T17:28:47;4.50;99.90
23251;DHT22;11794;49.730;10.088;2023-03-01T17:31:16;4.30;99.90